createdAt,value
2023-04-22T00:01:45.644Z,8.30
2023-04-22T00:04:13.082Z,8.30
2023-04-22T00:06:40.997Z,8.20
2023-04-22T00:09:08.423Z,8.20
2023-04-22T00:11:35.689Z,8.20
2023-04-22T00:14:02.969Z,8.20
2023-04-22T00:16:30.234Z,8.10
2023-04-22T00:18:57.543Z,8.20
2023-04-22T00:21:24.874Z,8.10
2023-04-22T00:23:52.153Z,8.10
2023-04-22T00:26:19.446Z,8.00
2023-04-22T00:28:46.716Z,8.00
2023-04-22T00:31:13.968Z,8.00
2023-04-22T00:33:41.295Z,8.00
2023-04-22T00:36:08.568Z,8.00
2023-04-22T00:38:35.838Z,8.00
2023-04-22T00:41:03.192Z,7.90
2023-04-22T00:43:30.684Z,7.90
2023-04-22T00:45:58.193Z,7.90
2023-04-22T00:48:28.251Z,7.90
2023-04-22T00:50:56.145Z,7.90
2023-04-22T00:53:23.385Z,7.80
2023-04-22T00:55:50.681Z,7.80
2023-04-22T00:58:18.913Z,7.80
2023-04-22T01:00:46.148Z,7.80
2023-04-22T01:03:13.600Z,7.70
2023-04-22T01:05:41.507Z,7.70
2023-04-22T01:08:08.820Z,7.70
2023-04-22T01:10:36.319Z,7.60
2023-04-22T01:13:03.584Z,7.60
2023-04-22T01:15:30.850Z,7.60
2023-04-22T01:17:59.069Z,7.50
2023-04-22T01:20:29.451Z,7.50
2023-04-22T01:22:59.448Z,7.50
2023-04-22T01:25:26.868Z,7.50
2023-04-22T01:27:54.286Z,7.50
2023-04-22T01:30:21.613Z,7.60
2023-04-22T01:32:49.437Z,7.60
2023-04-22T01:35:16.742Z,7.60
2023-04-22T01:37:44.581Z,7.50
2023-04-22T01:40:12.403Z,7.50
2023-04-22T01:42:39.669Z,7.50
2023-04-22T01:45:07.643Z,7.50
2023-04-22T01:47:34.931Z,7.50
2023-04-22T01:50:02.204Z,7.50
2023-04-22T01:52:29.788Z,7.50
2023-04-22T01:54:58.073Z,7.40
2023-04-22T01:57:25.288Z,7.40
2023-04-22T01:59:52.579Z,7.40
2023-04-22T02:02:19.937Z,7.40
2023-04-22T02:04:47.329Z,7.40
2023-04-22T02:07:14.724Z,7.30
2023-04-22T02:09:42.193Z,7.30
2023-04-22T02:12:09.770Z,7.30
2023-04-22T02:14:37.000Z,7.30
2023-04-22T02:17:04.786Z,7.30
2023-04-22T02:19:32.028Z,7.30
2023-04-22T02:21:59.547Z,7.30
2023-04-22T02:24:26.891Z,7.30
2023-04-22T02:26:54.130Z,7.20
2023-04-22T02:29:21.517Z,7.20
2023-04-22T02:31:48.824Z,7.20
2023-04-22T02:34:16.272Z,7.20
2023-04-22T02:36:43.513Z,7.20
2023-04-22T02:39:11.650Z,7.20
2023-04-22T02:41:38.961Z,7.20
2023-04-22T02:44:06.574Z,7.20
2023-04-22T02:46:33.982Z,7.20
2023-04-22T02:49:02.304Z,7.20
2023-04-22T02:51:29.521Z,7.20
2023-04-22T02:53:56.798Z,7.30
2023-04-22T02:56:24.047Z,7.30
2023-04-22T02:58:51.322Z,7.30
2023-04-22T03:01:18.715Z,7.30
2023-04-22T03:03:46.204Z,7.30
2023-04-22T03:06:13.527Z,7.30
2023-04-22T03:08:40.773Z,7.30
2023-04-22T03:11:08.127Z,7.30
2023-04-22T03:13:35.442Z,7.30
2023-04-22T03:16:02.732Z,7.30
2023-04-22T03:18:30.027Z,7.30
2023-04-22T03:20:57.322Z,7.30
2023-04-22T03:23:24.641Z,7.30
2023-04-22T03:25:52.027Z,7.30
2023-04-22T03:28:19.252Z,7.30
2023-04-22T03:30:47.345Z,7.30
2023-04-22T03:33:14.673Z,7.20
2023-04-22T03:35:41.967Z,7.20
2023-04-22T03:38:09.328Z,7.10
2023-04-22T03:40:36.616Z,7.10
2023-04-22T03:43:03.842Z,7.10
2023-04-22T03:45:31.255Z,7.10
2023-04-22T03:47:58.606Z,7.00
2023-04-22T03:50:25.881Z,7.00
2023-04-22T03:52:53.119Z,6.90
2023-04-22T03:55:20.454Z,6.80
2023-04-22T03:57:47.700Z,6.90
2023-04-22T04:00:15.083Z,6.90
2023-04-22T04:02:42.779Z,6.90
2023-04-22T04:05:11.383Z,6.90
2023-04-22T04:07:38.803Z,6.80
2023-04-22T04:10:06.405Z,6.80
2023-04-22T04:12:33.664Z,6.80
2023-04-22T04:15:00.966Z,6.80
2023-04-22T04:17:28.926Z,6.80
2023-04-22T04:19:56.315Z,6.80
2023-04-22T04:22:23.624Z,6.80
2023-04-22T04:24:50.918Z,6.80
2023-04-22T04:27:18.196Z,6.80
2023-04-22T04:29:45.544Z,6.80
2023-04-22T04:32:12.772Z,6.80
2023-04-22T04:34:40.116Z,6.80
2023-04-22T04:37:07.372Z,6.80
2023-04-22T04:39:34.680Z,6.80
2023-04-22T04:42:01.915Z,6.80
2023-04-22T04:44:31.783Z,6.80
2023-04-22T04:46:59.434Z,6.80
2023-04-22T04:49:26.842Z,6.80
2023-04-22T04:51:54.058Z,6.90
2023-04-22T04:54:21.275Z,6.90
2023-04-22T04:56:48.538Z,6.90
2023-04-22T04:59:15.906Z,7.00
2023-04-22T05:01:43.190Z,7.00
2023-04-22T05:04:10.586Z,7.00
2023-04-22T05:06:37.922Z,7.10
2023-04-22T05:09:05.457Z,6.90
2023-04-22T05:11:32.710Z,6.90
2023-04-22T05:14:00.337Z,7.10
2023-04-22T05:16:28.220Z,7.10
2023-04-22T05:18:55.610Z,7.00
2023-04-22T05:21:22.895Z,7.00
2023-04-22T05:23:50.215Z,7.10
2023-04-22T05:26:17.478Z,7.10
2023-04-22T05:28:44.779Z,7.10
2023-04-22T05:31:12.016Z,7.10
2023-04-22T05:33:39.282Z,7.20
2023-04-22T05:36:06.726Z,7.40
2023-04-22T05:38:33.982Z,7.60
2023-04-22T05:41:01.285Z,7.60
2023-04-22T05:43:28.601Z,7.60
2023-04-22T05:45:56.114Z,7.50
2023-04-22T05:48:23.625Z,7.40
2023-04-22T05:50:51.059Z,7.40
2023-04-22T05:53:18.572Z,7.40
2023-04-22T05:55:45.847Z,7.30
2023-04-22T05:58:13.110Z,7.30
2023-04-22T06:00:40.381Z,7.30
2023-04-22T06:03:08.259Z,7.30
2023-04-22T06:05:35.771Z,7.30
2023-04-22T06:08:03.215Z,7.30
2023-04-22T06:10:30.559Z,7.30
2023-04-22T06:12:57.821Z,7.30
2023-04-22T06:15:25.677Z,7.40
2023-04-22T06:17:52.965Z,7.50
2023-04-22T06:20:20.314Z,7.50
2023-04-22T06:22:47.564Z,7.60
2023-04-22T06:25:14.824Z,7.60
2023-04-22T06:27:42.129Z,7.70
2023-04-22T06:30:11.460Z,7.70
2023-04-22T06:32:38.816Z,7.70
2023-04-22T06:35:06.703Z,7.70
2023-04-22T06:37:34.081Z,7.80
2023-04-22T06:40:01.404Z,7.90
2023-04-22T06:42:28.805Z,7.80
2023-04-22T06:44:56.067Z,7.90
2023-04-22T06:47:23.629Z,8.00
2023-04-22T06:49:50.877Z,8.00
2023-04-22T06:52:18.255Z,8.10
2023-04-22T06:54:45.563Z,8.10
2023-04-22T06:57:13.283Z,8.20
2023-04-22T06:59:41.487Z,8.20
2023-04-22T07:02:09.610Z,8.30
2023-04-22T07:04:37.322Z,8.20
2023-04-22T07:07:04.868Z,8.30
2023-04-22T07:09:32.113Z,8.30
2023-04-22T07:11:59.444Z,8.20
2023-04-22T07:14:29.715Z,8.20
2023-04-22T07:16:56.968Z,8.20
2023-04-22T07:19:24.381Z,8.10
2023-04-22T07:21:51.680Z,8.00
2023-04-22T07:24:18.933Z,8.00
2023-04-22T07:26:46.292Z,8.10
2023-04-22T07:29:13.560Z,8.20
2023-04-22T07:31:40.853Z,8.30
2023-04-22T07:34:10.566Z,8.30
2023-04-22T07:36:37.932Z,8.40
2023-04-22T07:39:05.243Z,8.50
2023-04-22T07:41:32.476Z,8.60
2023-04-22T07:43:59.848Z,8.60
2023-04-22T07:46:27.135Z,8.60
2023-04-22T07:48:54.436Z,8.90
2023-04-22T07:51:21.654Z,9.00
2023-04-22T07:53:48.892Z,9.20
2023-04-22T07:56:16.156Z,9.30
2023-04-22T07:58:43.389Z,9.40
2023-04-22T08:01:10.770Z,9.40
2023-04-22T08:03:38.154Z,9.50
2023-04-22T08:06:05.737Z,9.50
2023-04-22T08:08:33.041Z,9.50
2023-04-22T08:11:00.340Z,9.50
2023-04-22T08:13:27.579Z,9.60
2023-04-22T08:15:55.487Z,9.60
2023-04-22T08:18:22.777Z,9.70
2023-04-22T08:20:50.236Z,9.70
2023-04-22T08:23:17.501Z,9.70
2023-04-22T08:25:46.790Z,9.80
2023-04-22T08:28:18.228Z,9.80
2023-04-22T08:30:47.204Z,9.90
2023-04-22T08:33:14.634Z,10.00
2023-04-22T08:35:42.326Z,10.00
2023-04-22T08:38:10.190Z,10.10
2023-04-22T08:40:40.886Z,10.10
2023-04-22T08:43:08.802Z,10.30
2023-04-22T08:45:39.377Z,10.40
2023-04-22T08:48:08.621Z,10.40
2023-04-22T08:50:37.297Z,10.40
2023-04-22T08:53:04.541Z,10.40
2023-04-22T08:55:32.137Z,10.40
2023-04-22T08:58:01.190Z,10.30
2023-04-22T09:00:28.642Z,10.30
2023-04-22T09:02:57.192Z,10.40
2023-04-22T09:05:27.292Z,10.50
2023-04-22T09:07:55.559Z,10.60
2023-04-22T09:10:22.849Z,10.60
2023-04-22T09:12:50.827Z,10.60
2023-04-22T09:15:18.145Z,10.60
2023-04-22T09:17:46.042Z,10.60
2023-04-22T09:20:15.388Z,10.60
2023-04-22T09:22:43.913Z,10.70
2023-04-22T09:25:21.163Z,10.80
2023-04-22T09:27:53.793Z,10.80
2023-04-22T09:30:29.468Z,10.70
2023-04-22T09:32:57.671Z,10.80
2023-04-22T09:35:26.435Z,10.80
2023-04-22T09:37:53.905Z,10.80
2023-04-22T09:40:21.133Z,10.70
2023-04-22T09:42:52.608Z,10.80
2023-04-22T09:45:26.478Z,10.90
2023-04-22T09:47:54.752Z,11.10
2023-04-22T09:50:24.261Z,11.20
2023-04-22T09:52:55.593Z,11.20
2023-04-22T09:55:27.268Z,10.70
2023-04-22T09:57:56.139Z,11.20
2023-04-22T10:00:28.933Z,11.20
2023-04-22T10:02:56.295Z,11.40
2023-04-22T10:05:25.180Z,11.40
2023-04-22T10:07:52.921Z,11.50
2023-04-22T10:10:20.237Z,11.70
2023-04-22T10:12:48.990Z,11.70
2023-04-22T10:15:16.209Z,11.60
2023-04-22T10:17:46.017Z,11.60
2023-04-22T10:20:16.111Z,11.60
2023-04-22T10:22:43.712Z,11.70
2023-04-22T10:25:11.953Z,11.80
2023-04-22T10:27:39.719Z,12.00
2023-04-22T10:30:07.948Z,12.10
2023-04-22T10:32:35.221Z,12.10
2023-04-22T10:35:13.006Z,12.20
2023-04-22T10:37:44.610Z,12.20
2023-04-22T10:40:16.115Z,12.30
2023-04-22T10:42:47.955Z,12.40
2023-04-22T10:45:15.694Z,12.50
2023-04-22T10:47:43.727Z,12.70
2023-04-22T10:50:19.594Z,12.80
2023-04-22T10:52:51.424Z,12.90
2023-04-22T10:55:19.674Z,13.00
2023-04-22T10:57:47.861Z,12.90
2023-04-22T11:00:23.216Z,12.80
2023-04-22T11:02:53.856Z,12.60
2023-04-22T11:05:25.396Z,12.70
2023-04-22T11:07:54.478Z,12.90
2023-04-22T11:10:30.944Z,13.20
2023-04-22T11:12:58.295Z,13.50
2023-04-22T11:15:26.203Z,13.80
2023-04-22T11:17:54.307Z,13.90
2023-04-22T11:20:21.879Z,13.80
2023-04-22T11:22:51.282Z,13.60
2023-04-22T11:25:18.691Z,13.30
2023-04-22T11:27:46.018Z,13.10
2023-04-22T11:30:15.101Z,13.20
2023-04-22T11:32:46.898Z,13.20
2023-04-22T11:35:15.908Z,13.60
2023-04-22T11:37:44.426Z,14.10
2023-04-22T11:40:29.133Z,14.40
2023-04-22T11:42:59.571Z,14.40
2023-04-22T11:45:28.284Z,14.30
2023-04-22T11:47:56.535Z,14.10
2023-04-22T11:50:25.092Z,14.00
2023-04-22T11:52:53.830Z,14.20
2023-04-22T11:55:21.213Z,14.20
2023-04-22T11:57:52.830Z,14.10
2023-04-22T12:00:20.309Z,14.10
2023-04-22T12:03:15.219Z,14.00
2023-04-22T12:05:44.031Z,14.00
2023-04-22T12:08:11.333Z,14.10
2023-04-22T12:10:57.388Z,14.50
2023-04-22T12:13:24.675Z,14.80
2023-04-22T12:16:02.443Z,15.00
2023-04-22T12:18:33.739Z,15.00
2023-04-22T12:21:02.456Z,15.70
2023-04-22T12:23:29.998Z,16.00
2023-04-22T12:25:57.592Z,16.00
2023-04-22T12:28:24.945Z,16.30
2023-04-22T12:30:52.197Z,16.20
2023-04-22T12:33:19.508Z,16.70
2023-04-22T12:35:48.807Z,16.90
2023-04-22T12:38:16.078Z,16.70
2023-04-22T12:40:43.369Z,16.70
2023-04-22T12:43:10.622Z,16.50
2023-04-22T12:45:37.864Z,16.00
2023-04-22T12:48:05.248Z,15.90
2023-04-22T12:50:32.588Z,15.90
2023-04-22T12:52:59.951Z,15.70
2023-04-22T12:55:27.348Z,15.60
2023-04-22T12:57:54.714Z,15.50
2023-04-22T13:00:22.861Z,15.30
2023-04-22T13:02:50.381Z,15.30
2023-04-22T13:05:19.170Z,15.10
2023-04-22T13:07:53.247Z,14.90
2023-04-22T13:10:28.336Z,14.80
2023-04-22T13:13:00.553Z,14.70
2023-04-22T13:15:37.382Z,14.50
2023-04-22T13:18:04.660Z,14.30
2023-04-22T13:20:31.920Z,14.10
2023-04-22T13:22:59.330Z,14.00
2023-04-22T13:25:26.603Z,13.80
2023-04-22T13:27:53.810Z,13.70
2023-04-22T13:30:21.150Z,13.70
2023-04-22T13:32:48.417Z,13.70
2023-04-22T13:35:18.069Z,13.60
2023-04-22T13:37:46.292Z,13.60
2023-04-22T13:40:13.850Z,13.60
2023-04-22T13:42:41.201Z,13.50
2023-04-22T13:45:08.882Z,13.50
2023-04-22T13:47:36.534Z,13.50
2023-04-22T13:50:05.543Z,13.40
2023-04-22T13:52:32.961Z,13.30
2023-04-22T13:55:00.267Z,13.30
2023-04-22T13:57:27.580Z,13.20
2023-04-22T13:59:54.826Z,13.20
2023-04-22T14:02:22.149Z,13.20
2023-04-22T14:04:49.446Z,13.30
2023-04-22T14:07:16.738Z,13.30
2023-04-22T14:09:43.987Z,13.20
2023-04-22T14:12:11.305Z,13.30
2023-04-22T14:14:38.560Z,13.30
2023-04-22T14:17:06.027Z,13.40
2023-04-22T14:19:33.718Z,13.40
2023-04-22T14:22:00.942Z,13.40
2023-04-22T14:24:28.223Z,13.40
2023-04-22T14:26:58.599Z,13.40
2023-04-22T14:29:26.147Z,13.40
2023-04-22T14:31:53.645Z,13.40
2023-04-22T14:34:20.928Z,13.20
2023-04-22T14:36:48.182Z,13.20
2023-04-22T14:39:15.815Z,13.10
2023-04-22T14:41:43.119Z,13.20
2023-04-22T14:44:10.360Z,13.20
2023-04-22T14:46:37.766Z,13.40
2023-04-22T14:49:05.099Z,13.50
2023-04-22T14:51:32.695Z,13.30
2023-04-22T14:53:59.924Z,13.30
2023-04-22T14:56:27.277Z,13.40
2023-04-22T14:58:54.515Z,13.40
2023-04-22T15:01:23.019Z,13.40
2023-04-22T15:03:51.559Z,13.40
2023-04-22T15:06:18.964Z,13.50
2023-04-22T15:08:46.276Z,13.40
2023-04-22T15:11:13.554Z,13.40
2023-04-22T15:13:40.872Z,13.50
2023-04-22T15:16:08.170Z,13.70
2023-04-22T15:18:35.528Z,14.00
2023-04-22T15:21:03.347Z,14.20
2023-04-22T15:23:30.719Z,14.10
2023-04-22T15:25:57.994Z,13.90
2023-04-22T15:28:25.239Z,13.80
2023-04-22T15:30:52.514Z,13.90
2023-04-22T15:33:19.820Z,14.00
2023-04-22T15:35:49.451Z,13.90
2023-04-22T15:38:17.177Z,14.00
2023-04-22T15:40:44.554Z,14.00
2023-04-22T15:43:12.001Z,14.00
2023-04-22T15:45:39.271Z,14.10
2023-04-22T15:48:06.587Z,14.20
2023-04-22T15:50:33.858Z,14.20
2023-04-22T15:53:01.132Z,14.10
2023-04-22T15:55:28.395Z,14.00
2023-04-22T15:57:55.646Z,14.00
2023-04-22T16:00:22.910Z,13.90
2023-04-22T16:02:55.579Z,13.90
2023-04-22T16:05:24.696Z,13.90
2023-04-22T16:07:53.010Z,13.90
2023-04-22T16:10:20.583Z,14.00
2023-04-22T16:12:47.960Z,14.00
2023-04-22T16:15:16.254Z,14.10
2023-04-22T16:17:44.313Z,14.00
2023-04-22T16:20:11.935Z,14.00
2023-04-22T16:22:39.420Z,13.90
2023-04-22T16:25:07.113Z,14.00
2023-04-22T16:27:34.508Z,14.00
2023-04-22T16:30:02.023Z,14.00
2023-04-22T16:32:29.470Z,14.10
2023-04-22T16:34:56.727Z,14.20
2023-04-22T16:37:24.175Z,14.10
2023-04-22T16:39:51.896Z,14.10
2023-04-22T16:42:19.138Z,14.10
2023-04-22T16:44:46.401Z,14.10
2023-04-22T16:47:13.624Z,14.10
2023-04-22T16:49:41.054Z,14.10
2023-04-22T16:52:08.549Z,14.20
2023-04-22T16:54:35.874Z,14.10
2023-04-22T16:57:04.777Z,14.10
2023-04-22T16:59:32.105Z,14.10
2023-04-22T17:01:59.389Z,14.00
2023-04-22T17:04:26.895Z,14.00
2023-04-22T17:06:55.838Z,14.00
2023-04-22T17:09:23.065Z,14.00
2023-04-22T17:11:50.607Z,13.90
2023-04-22T17:14:17.825Z,13.90
2023-04-22T17:16:45.071Z,13.80
2023-04-22T17:19:12.375Z,13.80
2023-04-22T17:21:39.956Z,13.90
2023-04-22T17:24:07.258Z,13.90
2023-04-22T17:26:34.686Z,13.90
2023-04-22T17:29:02.010Z,13.80
2023-04-22T17:31:29.368Z,13.80
2023-04-22T17:33:56.721Z,13.80
2023-04-22T17:36:24.028Z,13.80
2023-04-22T17:38:51.516Z,13.70
2023-04-22T17:41:18.923Z,13.60
2023-04-22T17:43:46.557Z,13.60
2023-04-22T17:46:16.779Z,13.60
2023-04-22T17:48:46.812Z,13.50
2023-04-22T17:51:14.597Z,13.60
2023-04-22T17:53:44.502Z,13.50
2023-04-22T17:56:21.394Z,13.50
2023-04-22T17:58:54.094Z,13.40
2023-04-22T18:01:24.666Z,13.40
2023-04-22T18:03:53.478Z,13.40
2023-04-22T18:06:21.369Z,13.40
2023-04-22T18:08:48.752Z,13.30
2023-04-22T18:11:17.734Z,13.30
2023-04-22T18:13:46.205Z,13.30
2023-04-22T18:16:14.683Z,13.20
2023-04-22T18:18:45.830Z,13.20
2023-04-22T18:21:16.856Z,13.20
2023-04-22T18:23:44.841Z,13.10
2023-04-22T18:26:12.635Z,13.10
2023-04-22T18:28:41.135Z,13.00
2023-04-22T18:31:08.427Z,13.10
2023-04-22T18:33:35.919Z,13.10
2023-04-22T18:36:03.277Z,13.00
2023-04-22T18:38:30.584Z,13.00
2023-04-22T18:40:57.872Z,13.00
2023-04-22T18:43:25.135Z,13.00
2023-04-22T18:45:52.378Z,13.00
2023-04-22T18:48:26.786Z,13.00
2023-04-22T18:50:57.200Z,12.90
2023-04-22T18:53:24.654Z,12.90
2023-04-22T18:55:51.897Z,12.90
2023-04-22T18:58:23.213Z,12.90
2023-04-22T19:00:50.840Z,12.80
2023-04-22T19:03:19.454Z,12.80
2023-04-22T19:05:47.996Z,12.80
2023-04-22T19:08:17.129Z,12.70
2023-04-22T19:10:44.925Z,12.80
2023-04-22T19:13:22.234Z,12.70
2023-04-22T19:16:11.138Z,12.70
2023-04-22T19:18:39.417Z,12.70
2023-04-22T19:21:11.903Z,12.70
2023-04-22T19:23:43.323Z,12.70
2023-04-22T19:26:11.313Z,12.40
2023-04-22T19:28:40.063Z,12.70
2023-04-22T19:31:08.176Z,12.70
2023-04-22T19:33:39.826Z,12.70
2023-04-22T19:36:08.888Z,12.70
2023-04-22T19:38:38.494Z,12.70
2023-04-22T19:41:09.426Z,12.70
2023-04-22T19:43:37.981Z,12.70
2023-04-22T19:46:05.331Z,12.70
2023-04-22T19:48:33.093Z,12.70
2023-04-22T19:51:00.495Z,12.60
2023-04-22T19:53:28.848Z,12.60
2023-04-22T19:55:56.709Z,12.60
2023-04-22T19:58:24.037Z,12.60
2023-04-22T20:00:51.481Z,12.60
2023-04-22T20:03:19.121Z,12.60
2023-04-22T20:05:47.929Z,12.60
2023-04-22T20:08:16.985Z,12.60
2023-04-22T20:10:44.894Z,12.60
2023-04-22T20:13:12.100Z,12.50
2023-04-22T20:15:39.734Z,12.50
2023-04-22T20:18:07.312Z,12.50
2023-04-22T20:20:35.006Z,12.50
2023-04-22T20:23:09.798Z,12.50
2023-04-22T20:25:39.670Z,12.40
2023-04-22T20:28:07.433Z,12.40
2023-04-22T20:30:35.046Z,12.40
2023-04-22T20:33:02.715Z,12.40
2023-04-22T20:35:32.124Z,12.30
2023-04-22T20:38:00.171Z,12.30
2023-04-22T20:40:33.931Z,12.20
2023-04-22T20:43:01.953Z,12.20
2023-04-22T20:45:29.768Z,12.20
2023-04-22T20:47:58.544Z,12.20
2023-04-22T20:56:27.927Z,12.20
2023-04-22T20:58:55.248Z,12.20
2023-04-22T21:01:22.829Z,12.10
2023-04-22T21:03:51.997Z,12.10
2023-04-22T21:06:20.068Z,12.00
2023-04-22T21:08:48.670Z,12.00
2023-04-22T21:11:16.284Z,11.90
2023-04-22T21:13:44.033Z,11.90
2023-04-22T21:16:13.460Z,11.90
2023-04-22T21:18:43.530Z,11.90
2023-04-22T21:21:12.152Z,11.90
2023-04-22T21:23:41.035Z,11.90
2023-04-22T21:26:09.177Z,11.80
2023-04-22T21:28:36.948Z,11.80
2023-04-22T21:31:04.534Z,11.80
2023-04-22T21:33:33.089Z,11.70
2023-04-22T21:36:00.525Z,11.70
2023-04-22T21:38:27.989Z,11.60
2023-04-22T21:40:55.691Z,11.50
2023-04-22T21:43:23.021Z,11.40
2023-04-22T21:45:50.631Z,11.40
2023-04-22T21:48:17.900Z,11.50
2023-04-22T21:50:45.160Z,11.40
2023-04-22T21:53:12.727Z,11.40
2023-04-22T21:55:40.151Z,11.40
2023-04-22T21:58:07.493Z,11.40
2023-04-22T22:00:34.847Z,11.30
2023-04-22T22:03:02.277Z,11.30
2023-04-22T22:05:30.086Z,11.30
2023-04-22T22:07:57.470Z,11.30
2023-04-22T22:10:24.964Z,11.30
2023-04-22T22:12:52.936Z,11.30
2023-04-22T22:15:20.431Z,11.30
2023-04-22T22:17:47.856Z,11.20
2023-04-22T22:20:20.305Z,11.20
2023-04-22T22:22:47.928Z,11.20
2023-04-22T22:25:18.054Z,11.10
2023-04-22T22:27:49.382Z,11.20
2023-04-22T22:30:18.130Z,11.20
2023-04-22T22:32:45.796Z,11.20
2023-04-22T22:35:13.481Z,11.20
2023-04-22T22:37:41.092Z,11.20
2023-04-22T22:40:09.031Z,11.20
2023-04-22T22:42:36.400Z,11.30
2023-04-22T22:45:05.220Z,11.20
2023-04-22T22:47:32.804Z,11.20
2023-04-22T22:50:00.530Z,11.20
2023-04-22T22:52:27.951Z,11.20
2023-04-22T22:54:55.347Z,11.20
2023-04-22T22:57:22.719Z,11.20
2023-04-22T22:59:50.010Z,11.20
2023-04-22T23:02:17.558Z,11.20
2023-04-22T23:04:45.992Z,11.30
2023-04-22T23:07:14.751Z,11.30
2023-04-22T23:09:42.465Z,11.40
2023-04-22T23:12:09.686Z,11.40
2023-04-22T23:14:36.942Z,11.30
2023-04-22T23:17:04.386Z,11.20
2023-04-22T23:19:32.249Z,11.10
2023-04-22T23:21:59.630Z,11.10
2023-04-22T23:24:27.066Z,11.10
2023-04-22T23:26:54.589Z,11.00
2023-04-22T23:29:22.182Z,11.00
2023-04-22T23:31:50.429Z,11.00
2023-04-22T23:34:18.949Z,11.00
2023-04-22T23:36:46.698Z,11.00
2023-04-22T23:39:14.021Z,11.00
2023-04-22T23:41:41.358Z,11.00
2023-04-22T23:44:08.626Z,11.00
2023-04-22T23:46:35.947Z,11.00
2023-04-22T23:49:03.282Z,11.00
2023-04-22T23:51:30.561Z,11.00
2023-04-22T23:53:57.873Z,11.10
2023-04-22T23:56:26.537Z,11.10
2023-04-22T23:58:54.019Z,11.10
